createdAt,value
2023-05-20T00:00:49.585Z,19.47
2023-05-20T00:03:17.569Z,25.63
2023-05-20T00:05:44.965Z,25.07
2023-05-20T00:08:12.336Z,31.90
2023-05-20T00:10:39.743Z,24.97
2023-05-20T00:13:07.202Z,22.70
2023-05-20T00:15:36.258Z,22.27
2023-05-20T00:18:04.393Z,23.97
2023-05-20T00:20:32.661Z,23.30
2023-05-20T00:22:59.697Z,20.70
2023-05-20T00:25:26.857Z,24.43
2023-05-20T00:27:53.891Z,20.50
2023-05-20T00:30:21.047Z,25.27
2023-05-20T00:32:48.145Z,16.73
2023-05-20T00:35:15.160Z,22.80
2023-05-20T00:37:43.185Z,23.47
2023-05-20T00:40:11.709Z,23.17
2023-05-20T00:42:39.367Z,22.80
2023-05-20T00:45:07.038Z,23.10
2023-05-20T00:47:36.697Z,23.50
2023-05-20T00:50:04.929Z,19.57
2023-05-20T00:52:33.119Z,22.90
2023-05-20T00:55:01.037Z,27.80
2023-05-20T00:57:28.147Z,23.37
2023-05-20T00:59:55.604Z,30.80
2023-05-20T01:02:24.192Z,25.10
2023-05-20T01:04:51.250Z,23.70
2023-05-20T01:07:19.307Z,26.33
2023-05-20T01:09:46.382Z,25.63
2023-05-20T01:12:37.282Z,26.07
2023-05-20T01:15:09.570Z,25.40
2023-05-20T01:17:45.072Z,22.87
2023-05-20T01:20:14.572Z,21.43
2023-05-20T01:22:55.986Z,25.97
2023-05-20T01:25:24.890Z,26.47
2023-05-20T01:27:52.931Z,24.93
2023-05-20T01:30:21.327Z,23.47
2023-05-20T01:33:01.841Z,24.33
2023-05-20T01:35:29.897Z,25.73
2023-05-20T01:37:58.939Z,23.17
2023-05-20T01:40:27.847Z,22.00
2023-05-20T01:42:56.110Z,22.87
2023-05-20T01:45:25.391Z,24.73
2023-05-20T01:47:52.963Z,26.03
2023-05-20T01:50:20.206Z,24.47
2023-05-20T01:52:47.161Z,20.67
2023-05-20T01:55:14.208Z,21.57
2023-05-20T01:57:41.249Z,20.00
2023-05-20T02:00:09.733Z,26.90
2023-05-20T02:02:36.816Z,25.60
2023-05-20T02:05:04.181Z,26.97
2023-05-20T02:07:31.114Z,21.27
2023-05-20T02:09:58.169Z,22.80
2023-05-20T02:12:25.209Z,17.67
2023-05-20T02:14:52.268Z,15.00
2023-05-20T02:17:19.833Z,19.43
2023-05-20T02:19:47.412Z,22.37
2023-05-20T02:22:14.895Z,15.57
2023-05-20T02:24:43.443Z,18.73
2023-05-20T02:27:10.861Z,20.63
2023-05-20T02:29:37.842Z,22.53
2023-05-20T02:32:05.268Z,16.53
2023-05-20T02:34:33.074Z,16.57
2023-05-20T02:37:00.187Z,21.63
2023-05-20T02:39:28.526Z,21.33
2023-05-20T02:41:56.408Z,17.10
2023-05-20T02:44:23.569Z,20.47
2023-05-20T02:46:50.590Z,17.47
2023-05-20T02:49:17.587Z,20.07
2023-05-20T02:51:44.653Z,18.33
2023-05-20T02:54:12.078Z,18.07
2023-05-20T02:56:39.343Z,18.53
2023-05-20T02:59:07.221Z,16.37
2023-05-20T03:01:35.547Z,25.77
2023-05-20T03:04:05.708Z,17.53
2023-05-20T03:06:32.869Z,14.30
2023-05-20T03:08:59.841Z,16.93
2023-05-20T03:11:26.905Z,18.23
2023-05-20T03:13:54.045Z,21.13
2023-05-20T03:16:22.366Z,22.93
2023-05-20T03:18:49.770Z,15.43
2023-05-20T03:21:16.855Z,15.90
2023-05-20T03:23:43.752Z,19.57
2023-05-20T03:26:10.801Z,14.93
2023-05-20T03:28:37.764Z,17.20
2023-05-20T03:31:04.829Z,15.93
2023-05-20T03:33:33.724Z,18.23
2023-05-20T03:36:00.834Z,18.07
2023-05-20T03:38:27.987Z,17.90
2023-05-20T03:40:54.970Z,13.80
2023-05-20T03:43:21.861Z,17.97
2023-05-20T03:45:48.836Z,17.63
2023-05-20T03:48:16.071Z,18.60
2023-05-20T03:50:42.988Z,17.57
2023-05-20T03:53:10.006Z,14.80
2023-05-20T03:55:37.043Z,14.10
2023-05-20T03:58:04.156Z,14.70
2023-05-20T04:00:31.875Z,17.97
2023-05-20T04:02:59.301Z,15.10
2023-05-20T04:05:26.963Z,16.53
2023-05-20T04:07:53.903Z,15.17
2023-05-20T04:10:21.545Z,15.57
2023-05-20T04:12:48.775Z,14.57
2023-05-20T04:15:16.075Z,20.07
2023-05-20T04:17:43.726Z,17.23
2023-05-20T04:20:11.514Z,17.53
2023-05-20T04:22:39.775Z,19.23
2023-05-20T04:25:07.791Z,16.80
2023-05-20T04:27:34.862Z,13.30
2023-05-20T04:30:02.666Z,22.03
2023-05-20T04:32:30.337Z,17.97
2023-05-20T04:34:57.406Z,15.80
2023-05-20T04:37:25.274Z,15.07
2023-05-20T04:39:52.595Z,17.70
2023-05-20T04:42:21.532Z,19.07
2023-05-20T04:44:49.056Z,18.67
2023-05-20T04:47:16.613Z,14.87
2023-05-20T04:49:43.766Z,15.00
2023-05-20T04:52:10.812Z,12.47
2023-05-20T04:54:37.794Z,18.90
2023-05-20T04:57:05.073Z,11.80
2023-05-20T04:59:32.040Z,16.60
2023-05-20T05:01:59.094Z,17.53
2023-05-20T05:04:26.175Z,14.90
2023-05-20T05:06:53.154Z,19.80
2023-05-20T05:09:20.075Z,16.57
2023-05-20T05:11:47.041Z,18.33
2023-05-20T05:14:14.018Z,17.53
2023-05-20T05:16:40.961Z,14.30
2023-05-20T05:19:08.825Z,17.27
2023-05-20T05:21:36.232Z,19.83
2023-05-20T05:24:03.161Z,21.43
2023-05-20T05:26:30.134Z,19.97
2023-05-20T05:28:57.260Z,18.60
2023-05-20T05:31:24.299Z,18.63
2023-05-20T05:33:51.256Z,19.67
2023-05-20T05:36:18.216Z,17.70
2023-05-20T05:38:45.272Z,14.60
2023-05-20T05:41:12.186Z,16.23
2023-05-20T05:43:39.249Z,17.13
2023-05-20T05:46:06.661Z,19.83
2023-05-20T05:48:33.687Z,15.53
2023-05-20T05:51:00.747Z,11.73
2023-05-20T05:53:27.725Z,13.77
2023-05-20T05:55:54.752Z,16.47
2023-05-20T05:58:21.706Z,15.83
2023-05-20T06:00:52.982Z,15.67
2023-05-20T06:03:20.137Z,15.00
2023-05-20T06:05:47.593Z,15.07
2023-05-20T06:08:14.703Z,16.23
2023-05-20T06:10:41.825Z,14.23
2023-05-20T06:13:08.778Z,14.10
2023-05-20T06:15:36.640Z,16.70
2023-05-20T06:18:03.894Z,17.47
2023-05-20T06:20:30.852Z,11.43
2023-05-20T06:22:57.808Z,18.80
2023-05-20T06:25:25.557Z,12.40
2023-05-20T06:27:52.528Z,15.27
2023-05-20T06:30:19.493Z,12.63
2023-05-20T06:32:46.776Z,14.63
2023-05-20T06:35:13.753Z,14.82
2023-05-20T06:37:40.859Z,17.63
2023-05-20T06:40:08.868Z,15.88
2023-05-20T06:42:35.826Z,13.13
2023-05-20T06:45:02.890Z,10.80
2023-05-20T06:47:29.938Z,17.85
2023-05-20T06:49:56.870Z,16.27
2023-05-20T06:52:23.782Z,14.65
2023-05-20T06:54:50.734Z,18.48
2023-05-20T06:57:17.719Z,12.93
2023-05-20T06:59:44.812Z,17.88
2023-05-20T07:02:11.935Z,12.32
2023-05-20T07:04:39.026Z,12.00
2023-05-20T07:07:06.115Z,10.35
2023-05-20T07:09:33.124Z,13.18
2023-05-20T07:12:01.979Z,15.40
2023-05-20T07:14:29.011Z,14.50
2023-05-20T07:16:56.072Z,15.93
2023-05-20T07:19:23.051Z,13.15
2023-05-20T07:21:50.104Z,13.15
2023-05-20T07:24:17.433Z,16.98
2023-05-20T07:26:44.606Z,13.25
2023-05-20T07:29:11.601Z,13.48
2023-05-20T07:31:38.689Z,17.02
2023-05-20T07:34:06.058Z,13.40
2023-05-20T07:36:33.009Z,13.73
2023-05-20T07:39:03.588Z,9.80
2023-05-20T07:41:32.142Z,15.27
2023-05-20T07:43:59.105Z,11.45
2023-05-20T07:46:26.215Z,10.07
2023-05-20T07:48:53.602Z,16.13
2023-05-20T07:51:20.562Z,11.57
2023-05-20T07:53:47.618Z,12.27
2023-05-20T07:56:14.573Z,14.85
2023-05-20T07:58:41.820Z,11.38
2023-05-20T08:01:09.769Z,16.08
2023-05-20T08:03:37.069Z,13.05
2023-05-20T08:06:04.319Z,14.25
2023-05-20T08:08:31.267Z,13.20
2023-05-20T08:10:58.222Z,8.23
2023-05-20T08:13:25.614Z,8.25
2023-05-20T08:15:54.889Z,10.73
2023-05-20T08:18:22.844Z,16.30
2023-05-20T08:20:50.091Z,12.80
2023-05-20T08:23:17.147Z,11.45
2023-05-20T08:25:46.810Z,9.60
2023-05-20T08:28:16.301Z,15.68
2023-05-20T08:30:43.383Z,12.00
2023-05-20T08:33:10.925Z,13.90
2023-05-20T08:35:39.771Z,8.23
2023-05-20T08:38:07.149Z,11.30
2023-05-20T08:40:39.954Z,11.55
2023-05-20T08:43:07.233Z,9.88
2023-05-20T08:45:38.198Z,10.05
2023-05-20T08:48:05.872Z,12.15
2023-05-20T08:50:33.645Z,11.07
2023-05-20T08:53:01.256Z,10.05
2023-05-20T08:55:46.902Z,8.68
2023-05-20T08:58:15.766Z,15.00
2023-05-20T09:00:42.714Z,10.68
2023-05-20T09:03:10.134Z,10.23
2023-05-20T09:05:37.444Z,9.93
2023-05-20T09:08:10.074Z,7.15
2023-05-20T09:10:39.008Z,7.80
2023-05-20T09:13:07.722Z,11.43
2023-05-20T09:15:36.674Z,11.15
2023-05-20T09:18:07.268Z,8.43
2023-05-20T09:20:37.262Z,10.00
2023-05-20T09:23:09.893Z,7.25
2023-05-20T09:25:38.001Z,11.48
2023-05-20T09:28:07.679Z,10.50
2023-05-20T09:30:35.121Z,7.85
2023-05-20T09:33:05.520Z,10.18
2023-05-20T09:35:39.177Z,5.80
2023-05-20T09:38:10.056Z,4.90
2023-05-20T09:40:40.554Z,6.07
2023-05-20T09:43:08.400Z,7.00
2023-05-20T09:45:35.870Z,6.68
2023-05-20T09:48:05.683Z,9.55
2023-05-20T09:50:33.292Z,6.90
2023-05-20T09:53:04.763Z,9.18
2023-05-20T09:55:32.333Z,5.43
2023-05-20T09:58:03.327Z,5.45
2023-05-20T10:00:31.544Z,13.85
2023-05-20T10:02:59.529Z,8.00
2023-05-20T10:05:37.391Z,9.73
2023-05-20T10:08:57.276Z,7.07
2023-05-20T10:12:02.423Z,4.38
2023-05-20T10:14:42.167Z,9.73
2023-05-20T10:17:27.470Z,6.18
2023-05-20T10:20:01.673Z,7.20
2023-05-20T10:22:31.641Z,5.72
2023-05-20T10:25:01.378Z,7.93
2023-05-20T10:27:28.400Z,9.60
2023-05-20T10:29:58.429Z,6.35
2023-05-20T10:32:31.856Z,7.43
2023-05-20T10:35:05.444Z,7.38
2023-05-20T10:37:42.007Z,5.55
2023-05-20T10:40:14.802Z,7.43
2023-05-20T10:42:42.827Z,6.75
2023-05-20T10:45:10.883Z,7.13
2023-05-20T10:47:57.065Z,8.25
2023-05-20T10:50:40.984Z,6.95
2023-05-20T10:53:21.682Z,6.22
2023-05-20T10:55:56.716Z,6.55
2023-05-20T10:58:25.066Z,6.25
2023-05-20T11:00:55.455Z,8.27
2023-05-20T11:03:23.478Z,6.25
2023-05-20T11:05:51.233Z,7.63
2023-05-20T11:08:28.516Z,8.30
2023-05-20T11:10:57.998Z,10.48
2023-05-20T11:13:27.672Z,10.30
2023-05-20T11:15:55.535Z,8.85
2023-05-20T11:18:22.586Z,5.88
2023-05-20T11:20:49.653Z,4.72
2023-05-20T11:23:16.780Z,8.10
2023-05-20T11:25:43.756Z,5.53
2023-05-20T11:28:14.589Z,6.95
2023-05-20T11:30:43.685Z,8.73
2023-05-20T11:33:14.286Z,5.43
2023-05-20T11:35:49.610Z,9.02
2023-05-20T11:38:17.279Z,7.90
2023-05-20T11:40:52.110Z,5.97
2023-05-20T11:43:20.360Z,6.32
2023-05-20T11:45:59.999Z,5.40
2023-05-20T11:48:27.154Z,9.27
2023-05-20T11:50:56.233Z,23.20
2023-05-20T11:53:24.463Z,16.85
2023-05-20T11:55:55.669Z,9.60
2023-05-20T11:58:32.501Z,5.18
2023-05-20T12:01:13.303Z,4.75
2023-05-20T12:03:46.951Z,6.18
2023-05-20T12:06:14.173Z,5.72
2023-05-20T12:08:41.136Z,6.28
2023-05-20T12:11:08.087Z,4.93
2023-05-20T12:13:35.585Z,4.93
2023-05-20T12:16:04.237Z,5.93
2023-05-20T12:18:31.868Z,6.95
2023-05-20T12:21:00.108Z,6.07
2023-05-20T12:23:27.447Z,7.82
2023-05-20T12:25:54.373Z,7.10
2023-05-20T12:28:21.709Z,4.93
2023-05-20T12:30:48.638Z,7.05
2023-05-20T12:33:15.691Z,9.27
2023-05-20T12:35:43.836Z,5.10
2023-05-20T12:38:11.213Z,5.20
2023-05-20T12:40:38.564Z,7.05
2023-05-20T12:43:06.937Z,31.40
2023-05-20T12:45:34.152Z,7.93
2023-05-20T12:48:01.353Z,5.93
2023-05-20T12:50:28.746Z,5.13
2023-05-20T12:52:55.790Z,6.68
2023-05-20T12:55:23.076Z,7.30
2023-05-20T12:57:50.445Z,7.00
2023-05-20T13:00:17.966Z,9.25
2023-05-20T13:02:45.053Z,7.10
2023-05-20T13:05:12.316Z,12.95
2023-05-20T13:07:39.774Z,9.65
2023-05-20T13:10:08.374Z,5.13
2023-05-20T13:12:36.727Z,5.90
2023-05-20T13:15:05.088Z,7.90
2023-05-20T13:17:32.275Z,6.22
2023-05-20T13:19:59.343Z,7.10
2023-05-20T13:22:26.302Z,9.85
2023-05-20T13:24:53.256Z,8.00
2023-05-20T13:27:20.218Z,5.18
2023-05-20T13:29:47.460Z,4.97
2023-05-20T13:32:14.417Z,7.50
2023-05-20T13:34:41.570Z,6.28
2023-05-20T13:37:08.605Z,7.47
2023-05-20T13:39:36.374Z,7.00
2023-05-20T13:42:04.279Z,5.60
2023-05-20T13:44:32.726Z,4.45
2023-05-20T13:47:00.169Z,5.22
2023-05-20T13:49:27.640Z,4.95
2023-05-20T13:51:54.594Z,7.47
2023-05-20T13:54:22.125Z,4.13
2023-05-20T13:56:49.320Z,6.95
2023-05-20T13:59:16.585Z,6.97
2023-05-20T14:01:45.438Z,5.30
2023-05-20T14:04:12.972Z,7.72
2023-05-20T14:06:40.599Z,7.22
2023-05-20T14:09:09.282Z,8.57
2023-05-20T14:11:37.050Z,10.25
2023-05-20T14:14:04.224Z,6.60
2023-05-20T14:16:32.535Z,6.53
2023-05-20T14:18:59.691Z,4.93
2023-05-20T14:21:26.717Z,6.70
2023-05-20T14:23:53.859Z,8.60
2023-05-20T14:26:21.724Z,7.20
2023-05-20T14:28:49.097Z,9.98
2023-05-20T14:31:16.492Z,7.88
2023-05-20T14:33:43.597Z,8.30
2023-05-20T14:36:11.395Z,6.10
2023-05-20T14:38:38.857Z,4.55
2023-05-20T14:41:05.929Z,5.97
2023-05-20T14:43:32.913Z,5.40
2023-05-20T14:46:00.111Z,6.43
2023-05-20T14:48:27.151Z,6.88
2023-05-20T14:50:54.145Z,5.47
2023-05-20T14:53:21.248Z,6.20
2023-05-20T14:55:48.444Z,7.43
2023-05-20T14:58:15.491Z,7.38
2023-05-20T15:00:42.500Z,7.65
2023-05-20T15:03:09.830Z,8.85
2023-05-20T15:05:37.016Z,8.68
2023-05-20T15:08:04.279Z,8.93
2023-05-20T15:10:31.575Z,10.93
2023-05-20T15:12:58.552Z,7.18
2023-05-20T15:15:25.583Z,8.25
2023-05-20T15:17:52.637Z,4.00
2023-05-20T15:20:19.732Z,4.45
2023-05-20T15:22:48.125Z,4.18
2023-05-20T15:25:15.337Z,7.63
2023-05-20T15:27:42.594Z,8.90
2023-05-20T15:30:10.595Z,6.60
2023-05-20T15:32:37.937Z,7.28
2023-05-20T15:35:06.078Z,8.05
2023-05-20T15:37:33.057Z,5.97
2023-05-20T15:39:59.979Z,6.65
2023-05-20T15:42:27.007Z,8.82
2023-05-20T15:44:54.014Z,5.28
2023-05-20T15:47:21.434Z,6.50
2023-05-20T15:49:48.523Z,6.85
2023-05-20T15:52:15.592Z,6.75
2023-05-20T15:54:42.657Z,4.97
2023-05-20T15:57:10.149Z,8.45
2023-05-20T15:59:37.100Z,5.60
2023-05-20T16:02:04.263Z,7.82
2023-05-20T16:04:32.541Z,8.15
2023-05-20T16:06:59.668Z,4.97
2023-05-20T16:09:26.673Z,6.25
2023-05-20T16:11:53.635Z,9.05
2023-05-20T16:14:20.549Z,7.30
2023-05-20T16:16:47.649Z,8.13
2023-05-20T16:19:14.801Z,11.70
2023-05-20T16:21:41.750Z,7.32
2023-05-20T16:24:08.736Z,8.30
2023-05-20T16:26:35.716Z,4.88
2023-05-20T16:29:02.703Z,4.93
2023-05-20T16:31:29.781Z,4.43
2023-05-20T16:33:57.422Z,9.15
2023-05-20T16:36:24.385Z,6.05
2023-05-20T16:38:51.413Z,7.95
2023-05-20T16:41:18.516Z,7.15
2023-05-20T16:43:45.491Z,3.45
2023-05-20T16:46:14.874Z,7.90
2023-05-20T16:48:42.999Z,7.57
2023-05-20T16:51:09.920Z,5.30
2023-05-20T16:53:37.371Z,5.47
2023-05-20T16:56:06.752Z,5.50
2023-05-20T16:58:33.725Z,7.05
2023-05-20T17:01:01.981Z,3.33
2023-05-20T17:03:28.958Z,7.20
2023-05-20T17:05:55.947Z,6.38
2023-05-20T17:08:22.999Z,6.88
2023-05-20T17:10:52.426Z,8.60
2023-05-20T17:13:21.041Z,4.45
2023-05-20T17:15:48.277Z,4.43
2023-05-20T17:18:15.342Z,4.85
2023-05-20T17:20:42.362Z,8.77
2023-05-20T17:23:09.413Z,4.28
2023-05-20T17:25:36.458Z,5.70
2023-05-20T17:28:03.569Z,5.43
2023-05-20T17:30:30.554Z,6.80
2023-05-20T17:32:57.901Z,7.18
2023-05-20T17:35:28.221Z,8.93
2023-05-20T17:37:55.359Z,5.07
2023-05-20T17:40:22.420Z,5.68
2023-05-20T17:42:49.399Z,8.25
2023-05-20T17:45:16.685Z,3.95
2023-05-20T17:47:43.683Z,3.65
2023-05-20T17:50:11.182Z,5.43
2023-05-20T17:52:38.312Z,5.18
2023-05-20T17:55:06.693Z,3.40
2023-05-20T17:57:34.017Z,3.97
2023-05-20T18:00:00.956Z,7.25
2023-05-20T18:02:28.089Z,8.27
2023-05-20T18:04:55.195Z,5.15
2023-05-20T18:07:22.388Z,4.78
2023-05-20T18:09:49.366Z,5.45
2023-05-20T18:12:16.306Z,8.57
2023-05-20T18:14:43.280Z,3.97
2023-05-20T18:17:10.532Z,3.35
2023-05-20T18:19:37.515Z,5.70
2023-05-20T18:22:07.199Z,3.88
2023-05-20T18:24:34.577Z,6.15
2023-05-20T18:27:01.573Z,5.25
2023-05-20T18:29:28.550Z,6.35
2023-05-20T18:31:55.755Z,7.45
2023-05-20T18:34:22.804Z,6.40
2023-05-20T18:36:50.178Z,6.55
2023-05-20T18:39:20.496Z,6.65
2023-05-20T18:41:48.597Z,7.20
2023-05-20T18:44:17.461Z,4.45
2023-05-20T18:46:44.758Z,7.35
2023-05-20T18:49:11.776Z,5.68
2023-05-20T18:51:40.183Z,3.95
2023-05-20T18:54:07.283Z,8.38
2023-05-20T18:56:35.059Z,5.57
2023-05-20T18:59:02.117Z,6.45
2023-05-20T19:01:29.152Z,8.43
2023-05-20T19:03:56.218Z,6.25
2023-05-20T19:06:23.516Z,4.07
2023-05-20T19:08:50.817Z,5.28
2023-05-20T19:11:17.909Z,4.78
2023-05-20T19:13:44.886Z,5.90
2023-05-20T19:16:11.926Z,3.90
2023-05-20T19:18:39.085Z,4.53
2023-05-20T19:21:06.291Z,6.22
2023-05-20T19:23:33.198Z,6.40
2023-05-20T19:26:00.207Z,4.38
2023-05-20T19:28:27.162Z,5.95
2023-05-20T19:30:54.149Z,4.72
2023-05-20T19:33:21.728Z,5.85
2023-05-20T19:35:51.874Z,3.83
2023-05-20T19:38:18.853Z,4.13
2023-05-20T19:40:47.014Z,5.28
2023-05-20T19:43:14.108Z,2.67
2023-05-20T19:45:41.238Z,8.50
2023-05-20T19:48:08.766Z,5.30
2023-05-20T19:50:36.447Z,9.00
2023-05-20T19:53:06.374Z,3.13
2023-05-20T19:55:38.604Z,7.57
2023-05-20T19:58:06.049Z,5.15
2023-05-20T20:00:33.004Z,6.60
2023-05-20T20:03:00.086Z,4.70
2023-05-20T20:05:27.198Z,5.95
2023-05-20T20:07:54.322Z,5.93
2023-05-20T20:10:24.580Z,4.85
2023-05-20T20:12:51.570Z,5.65
2023-05-20T20:15:23.698Z,5.78
2023-05-20T20:17:52.471Z,4.05
2023-05-20T20:20:20.004Z,4.30
2023-05-20T20:22:47.038Z,3.97
2023-05-20T20:25:14.032Z,6.20
2023-05-20T20:27:43.934Z,7.43
2023-05-20T20:30:13.387Z,5.57
2023-05-20T20:32:41.794Z,6.00
2023-05-20T20:35:09.559Z,6.93
2023-05-20T20:37:40.192Z,5.47
2023-05-20T20:40:13.256Z,5.13
2023-05-20T20:42:42.376Z,5.93
2023-05-20T20:45:12.304Z,6.88
2023-05-20T20:47:41.090Z,5.53
2023-05-20T20:50:12.694Z,4.85
2023-05-20T20:52:40.230Z,6.05
2023-05-20T20:55:07.989Z,9.70
2023-05-20T20:57:35.321Z,8.18
2023-05-20T21:00:08.880Z,6.97
2023-05-20T21:02:36.481Z,10.60
2023-05-20T21:05:03.467Z,8.88
2023-05-20T21:07:30.562Z,9.10
2023-05-20T21:09:57.677Z,13.25
2023-05-20T21:12:24.614Z,9.18
2023-05-20T21:14:51.645Z,11.13
2023-05-20T21:17:18.609Z,9.93
2023-05-20T21:19:45.535Z,10.00
2023-05-20T21:22:12.507Z,8.20
2023-05-20T21:24:39.504Z,7.03
2023-05-20T21:27:06.437Z,8.40
2023-05-20T21:29:35.272Z,10.57
2023-05-20T21:32:02.271Z,7.68
2023-05-20T21:34:29.203Z,9.02
2023-05-20T21:36:56.446Z,6.63
2023-05-20T21:39:23.477Z,7.05
2023-05-20T21:41:50.388Z,9.52
2023-05-20T21:44:17.366Z,10.45
2023-05-20T21:46:44.358Z,14.15
2023-05-20T21:49:11.356Z,11.32
2023-05-20T21:51:38.300Z,12.43
2023-05-20T21:54:05.295Z,10.60
2023-05-20T21:56:32.225Z,9.13
2023-05-20T21:58:59.173Z,6.97
2023-05-20T22:01:26.131Z,10.23
2023-05-20T22:03:53.345Z,8.00
2023-05-20T22:06:21.562Z,6.95
2023-05-20T22:08:49.045Z,8.52
2023-05-20T22:11:18.416Z,7.63
2023-05-20T22:13:53.634Z,11.48
2023-05-20T22:16:21.505Z,10.25
2023-05-20T22:18:53.868Z,9.52
2023-05-20T22:21:21.525Z,9.90
2023-05-20T22:23:51.379Z,8.20
2023-05-20T22:26:19.725Z,8.82
2023-05-20T22:28:46.878Z,7.80
2023-05-20T22:31:14.045Z,7.28
2023-05-20T22:33:44.075Z,14.07
2023-05-20T22:36:11.038Z,10.50
2023-05-20T22:38:38.053Z,8.63
2023-05-20T22:41:05.696Z,7.68
2023-05-20T22:43:36.718Z,6.40
2023-05-20T22:46:03.991Z,10.52
2023-05-20T22:48:34.317Z,6.97
2023-05-20T22:51:03.795Z,7.18
2023-05-20T22:53:30.819Z,6.72
2023-05-20T22:56:05.878Z,7.32
2023-05-20T22:58:39.465Z,10.70
2023-05-20T23:01:10.533Z,9.75
2023-05-20T23:03:38.229Z,11.43
2023-05-20T23:06:07.260Z,8.68
2023-05-20T23:08:44.499Z,8.40
2023-05-20T23:11:11.714Z,12.35
2023-05-20T23:13:38.639Z,8.77
2023-05-20T23:16:06.529Z,7.45
2023-05-20T23:18:40.011Z,10.00
2023-05-20T23:21:07.372Z,9.10
2023-05-20T23:23:37.402Z,8.13
2023-05-20T23:26:08.339Z,7.65
2023-05-20T23:28:42.108Z,8.23
2023-05-20T23:31:09.285Z,9.07
2023-05-20T23:33:36.366Z,5.55
2023-05-20T23:36:07.338Z,12.20
2023-05-20T23:38:37.969Z,10.52
2023-05-20T23:41:05.084Z,9.23
2023-05-20T23:43:31.992Z,8.15
2023-05-20T23:45:58.933Z,6.85
2023-05-20T23:48:29.649Z,9.52
2023-05-20T23:51:10.183Z,7.95
2023-05-20T23:53:40.873Z,10.63
2023-05-20T23:56:10.779Z,10.80
2023-05-20T23:58:53.371Z,10.23
